sensor_id;sensor_type;location;lat;lon;timestamp;pressure;altitude;pressure_sealevel;temperature;humidity
45357;BME280;31092;51.924;21.448;2022-10-28T00:01:57;101382.47;;;6.68;100.00
45357;BME280;31092;51.924;21.448;2022-10-28T00:04:23;101418.56;;;7.00;100.00
45357;BME280;31092;51.924;21.448;2022-10-28T00:06:48;101379.41;;;6.86;100.00
45357;BME280;31092;51.924;21.448;2022-10-28T00:09:14;101408.88;;;7.10;100.00
45357;BME280;31092;51.924;21.448;2022-10-28T00:11:39;101341.41;;;6.81;100.00
45357;BME280;31092;51.924;21.448;2022-10-28T00:14:06;101408.69;;;7.24;100.00
45357;BME280;31092;51.924;21.448;2022-10-28T00:16:34;101336.22;;;6.90;100.00
45357;BME280;31092;51.924;21.448;2022-10-28T00:19:02;101400.19;;;7.30;100.00
45357;BME280;31092;51.924;21.448;2022-10-28T00:21:33;101384.22;;;7.29;100.00
45357;BME280;31092;51.924;21.448;2022-10-28T00:23:59;101407.91;;;7.46;100.00
45357;BME280;31092;51.924;21.448;2022-10-28T00:26:27;101363.75;;;7.28;100.00
45357;BME280;31092;51.924;21.448;2022-10-28T00:29:06;101307.25;;;6.95;100.00
45357;BME280;31092;51.924;21.448;2022-10-28T00:31:33;101317.66;;;7.11;100.00
45357;BME280;31092;51.924;21.448;2022-10-28T00:34:00;101309.25;;;7.05;100.00
45357;BME280;31092;51.924;21.448;2022-10-28T00:36:29;101399.03;;;7.57;100.00
45357;BME280;31092;51.924;21.448;2022-10-28T00:38:56;101326.06;;;7.18;100.00
45357;BME280;31092;51.924;21.448;2022-10-28T00:41:34;101404.94;;;7.62;100.00
45357;BME280;31092;51.924;21.448;2022-10-28T00:46:48;101318.03;;;7.18;100.00
45357;BME280;31092;51.924;21.448;2022-10-28T00:49:27;101300.00;;;7.09;100.00
45357;BME280;31092;51.924;21.448;2022-10-28T00:52:07;101319.19;;;7.27;100.00
45357;BME280;31092;51.924;21.448;2022-10-28T00:54:36;101280.13;;;7.11;100.00
45357;BME280;31092;51.924;21.448;2022-10-28T00:57:05;101281.75;;;7.14;100.00
45357;BME280;31092;51.924;21.448;2022-10-28T00:59:35;101389.56;;;7.75;100.00
45357;BME280;31092;51.924;21.448;2022-10-28T01:02:02;101288.84;;;7.26;100.00
45357;BME280;31092;51.924;21.448;2022-10-28T01:04:29;101327.38;;;7.48;100.00
45357;BME280;31092;51.924;21.448;2022-10-28T01:06:55;101368.72;;;7.79;100.00
45357;BME280;31092;51.924;21.448;2022-10-28T01:09:20;101282.66;;;7.37;100.00
45357;BME280;31092;51.924;21.448;2022-10-28T01:17:48;101383.41;;;8.20;100.00
45357;BME280;31092;51.924;21.448;2022-10-28T01:32:16;101375.09;;;8.56;100.00
45357;BME280;31092;51.924;21.448;2022-10-28T01:35:23;101374.84;;;8.59;100.00
45357;BME280;31092;51.924;21.448;2022-10-28T01:41:08;101285.06;;;8.07;100.00
45357;BME280;31092;51.924;21.448;2022-10-28T01:43:51;101293.25;;;8.17;100.00
45357;BME280;31092;51.924;21.448;2022-10-28T01:46:28;101341.66;;;8.49;100.00
45357;BME280;31092;51.924;21.448;2022-10-28T01:49:00;101266.19;;;8.09;100.00
45357;BME280;31092;51.924;21.448;2022-10-28T01:51:57;101363.72;;;8.64;100.00
45357;BME280;31092;51.924;21.448;2022-10-28T01:54:25;101361.03;;;8.64;100.00
45357;BME280;31092;51.924;21.448;2022-10-28T01:56:54;101260.81;;;8.09;100.00
45357;BME280;31092;51.924;21.448;2022-10-28T01:59:23;101355.66;;;8.64;100.00
45357;BME280;31092;51.924;21.448;2022-10-28T02:01:50;101319.56;;;8.46;100.00
45357;BME280;31092;51.924;21.448;2022-10-28T02:04:15;101278.97;;;8.16;100.00
45357;BME280;31092;51.924;21.448;2022-10-28T02:06:43;101358.63;;;8.61;100.00
45357;BME280;31092;51.924;21.448;2022-10-28T02:17:43;101338.72;;;8.52;100.00
45357;BME280;31092;51.924;21.448;2022-10-28T02:25:31;101268.13;;;8.07;100.00
45357;BME280;31092;51.924;21.448;2022-10-28T02:28:06;101311.50;;;8.34;100.00
45357;BME280;31092;51.924;21.448;2022-10-28T02:30:40;101315.19;;;8.33;100.00
45357;BME280;31092;51.924;21.448;2022-10-28T02:33:11;101315.44;;;8.30;100.00
45357;BME280;31092;51.924;21.448;2022-10-28T02:35:46;101259.25;;;7.95;100.00
45357;BME280;31092;51.924;21.448;2022-10-28T02:38:17;101267.06;;;7.98;100.00
45357;BME280;31092;51.924;21.448;2022-10-28T02:40:47;101252.44;;;7.91;100.00
45357;BME280;31092;51.924;21.448;2022-10-28T02:43:16;101239.38;;;7.75;100.00
45357;BME280;31092;51.924;21.448;2022-10-28T02:45:45;101317.00;;;8.22;100.00
45357;BME280;31092;51.924;21.448;2022-10-28T02:48:17;101312.88;;;8.18;100.00
45357;BME280;31092;51.924;21.448;2022-10-28T02:50:50;101323.59;;;8.18;100.00
45357;BME280;31092;51.924;21.448;2022-10-28T02:53:21;101322.91;;;8.15;100.00
45357;BME280;31092;51.924;21.448;2022-10-28T02:55:51;101343.50;;;8.26;100.00
45357;BME280;31092;51.924;21.448;2022-10-28T02:58:18;101242.81;;;7.77;100.00
45357;BME280;31092;51.924;21.448;2022-10-28T03:00:45;101306.06;;;8.13;100.00
45357;BME280;31092;51.924;21.448;2022-10-28T03:03:12;101318.59;;;8.24;100.00
45357;BME280;31092;51.924;21.448;2022-10-28T03:05:38;101235.75;;;7.76;100.00
45357;BME280;31092;51.924;21.448;2022-10-28T03:08:03;101244.88;;;7.85;100.00
45357;BME280;31092;51.924;21.448;2022-10-28T03:10:29;101240.13;;;7.77;100.00
45357;BME280;31092;51.924;21.448;2022-10-28T03:12:54;101298.25;;;8.10;100.00
45357;BME280;31092;51.924;21.448;2022-10-28T03:15:20;101267.69;;;7.90;100.00
45357;BME280;31092;51.924;21.448;2022-10-28T03:17:45;101235.00;;;7.74;100.00
45357;BME280;31092;51.924;21.448;2022-10-28T03:20:11;101249.88;;;7.78;100.00
45357;BME280;31092;51.924;21.448;2022-10-28T03:22:36;101235.25;;;7.71;100.00
45357;BME280;31092;51.924;21.448;2022-10-28T03:25:02;101295.47;;;8.01;100.00
45357;BME280;31092;51.924;21.448;2022-10-28T03:27:28;101310.72;;;8.11;100.00
45357;BME280;31092;51.924;21.448;2022-10-28T03:29:53;101254.88;;;7.83;100.00
45357;BME280;31092;51.924;21.448;2022-10-28T03:32:19;101306.28;;;8.22;100.00
45357;BME280;31092;51.924;21.448;2022-10-28T03:34:44;101287.66;;;8.09;100.00
45357;BME280;31092;51.924;21.448;2022-10-28T03:37:12;101215.25;;;7.75;100.00
45357;BME280;31092;51.924;21.448;2022-10-28T03:39:37;101289.31;;;8.21;100.00
45357;BME280;31092;51.924;21.448;2022-10-28T03:42:03;101283.00;;;8.22;100.00
45357;BME280;31092;51.924;21.448;2022-10-28T03:44:29;101262.16;;;8.03;100.00
45357;BME280;31092;51.924;21.448;2022-10-28T03:46:54;101263.75;;;8.06;100.00
45357;BME280;31092;51.924;21.448;2022-10-28T03:49:19;101218.28;;;7.82;100.00
45357;BME280;31092;51.924;21.448;2022-10-28T03:51:45;101270.78;;;8.18;100.00
45357;BME280;31092;51.924;21.448;2022-10-28T03:54:10;101200.88;;;7.76;100.00
45357;BME280;31092;51.924;21.448;2022-10-28T03:56:36;101219.63;;;7.87;100.00
45357;BME280;31092;51.924;21.448;2022-10-28T03:59:05;101268.25;;;8.16;100.00
45357;BME280;31092;51.924;21.448;2022-10-28T04:01:30;101269.56;;;8.11;100.00
45357;BME280;31092;51.924;21.448;2022-10-28T04:03:56;101272.97;;;8.24;100.00
45357;BME280;31092;51.924;21.448;2022-10-28T04:06:21;101189.66;;;7.71;100.00
45357;BME280;31092;51.924;21.448;2022-10-28T04:08:47;101177.84;;;7.62;100.00
45357;BME280;31092;51.924;21.448;2022-10-28T04:11:12;101261.66;;;8.09;100.00
45357;BME280;31092;51.924;21.448;2022-10-28T04:13:38;101264.59;;;8.06;100.00
45357;BME280;31092;51.924;21.448;2022-10-28T04:16:04;101202.38;;;7.58;100.00
45357;BME280;31092;51.924;21.448;2022-10-28T04:18:29;101185.78;;;7.41;100.00
45357;BME280;31092;51.924;21.448;2022-10-28T04:20:56;101280.94;;;7.92;100.00
45357;BME280;31092;51.924;21.448;2022-10-28T04:23:21;101209.81;;;7.54;100.00
45357;BME280;31092;51.924;21.448;2022-10-28T04:25:51;101259.25;;;7.84;100.00
45357;BME280;31092;51.924;21.448;2022-10-28T04:28:17;101239.38;;;7.64;100.00
45357;BME280;31092;51.924;21.448;2022-10-28T04:30:45;101205.16;;;7.45;100.00
45357;BME280;31092;51.924;21.448;2022-10-28T04:33:11;101263.91;;;7.71;100.00
45357;BME280;31092;51.924;21.448;2022-10-28T04:35:37;101260.84;;;7.64;100.00
45357;BME280;31092;51.924;21.448;2022-10-28T04:38:03;101279.38;;;7.67;100.00
45357;BME280;31092;51.924;21.448;2022-10-28T04:40:29;101199.91;;;7.10;100.00
45357;BME280;31092;51.924;21.448;2022-10-28T04:42:55;101225.09;;;7.18;100.00
45357;BME280;31092;51.924;21.448;2022-10-28T04:45:20;101281.69;;;7.49;100.00
45357;BME280;31092;51.924;21.448;2022-10-28T04:47:45;101182.47;;;6.93;100.00
45357;BME280;31092;51.924;21.448;2022-10-28T04:50:12;101178.56;;;6.86;100.00
45357;BME280;31092;51.924;21.448;2022-10-28T04:52:38;101250.44;;;7.26;100.00
45357;BME280;31092;51.924;21.448;2022-10-28T04:55:03;101195.13;;;6.91;100.00
45357;BME280;31092;51.924;21.448;2022-10-28T04:57:29;101271.66;;;7.29;100.00
45357;BME280;31092;51.924;21.448;2022-10-28T04:59:54;101178.50;;;6.63;100.00
45357;BME280;31092;51.924;21.448;2022-10-28T05:02:23;101277.00;;;7.17;100.00
45357;BME280;31092;51.924;21.448;2022-10-28T05:04:48;101192.13;;;6.60;100.00
45357;BME280;31092;51.924;21.448;2022-10-28T05:07:14;101150.38;;;6.22;100.00
45357;BME280;31092;51.924;21.448;2022-10-28T05:09:39;101296.19;;;7.00;100.00
45357;BME280;31092;51.924;21.448;2022-10-28T05:12:05;101268.50;;;6.77;100.00
45357;BME280;31092;51.924;21.448;2022-10-28T05:14:31;101268.50;;;6.77;100.00
45357;BME280;31092;51.924;21.448;2022-10-28T05:16:56;101215.06;;;6.40;100.00
45357;BME280;31092;51.924;21.448;2022-10-28T05:19:22;101292.97;;;6.84;100.00
45357;BME280;31092;51.924;21.448;2022-10-28T05:21:47;101180.44;;;6.26;100.00
45357;BME280;31092;51.924;21.448;2022-10-28T05:24:13;101287.50;;;6.85;100.00
45357;BME280;31092;51.924;21.448;2022-10-28T05:26:38;101195.53;;;6.27;100.00
45357;BME280;31092;51.924;21.448;2022-10-28T05:29:04;101186.13;;;6.21;100.00
45357;BME280;31092;51.924;21.448;2022-10-28T05:31:29;101192.22;;;6.23;100.00
45357;BME280;31092;51.924;21.448;2022-10-28T05:33:54;101279.56;;;6.72;100.00
45357;BME280;31092;51.924;21.448;2022-10-28T05:36:20;101204.50;;;6.26;100.00
45357;BME280;31092;51.924;21.448;2022-10-28T05:38:45;101287.94;;;6.79;100.00
45357;BME280;31092;51.924;21.448;2022-10-28T05:41:11;101262.00;;;6.68;100.00
45357;BME280;31092;51.924;21.448;2022-10-28T05:43:36;101225.28;;;6.46;100.00
45357;BME280;31092;51.924;21.448;2022-10-28T05:46:02;101279.06;;;6.79;100.00
45357;BME280;31092;51.924;21.448;2022-10-28T05:48:29;101182.72;;;6.19;100.00
45357;BME280;31092;51.924;21.448;2022-10-28T05:50:54;101262.56;;;6.61;100.00
45357;BME280;31092;51.924;21.448;2022-10-28T05:53:20;101234.75;;;6.39;100.00
45357;BME280;31092;51.924;21.448;2022-10-28T05:55:45;101174.97;;;6.04;100.00
45357;BME280;31092;51.924;21.448;2022-10-28T05:58:11;101270.34;;;6.53;100.00
45357;BME280;31092;51.924;21.448;2022-10-28T06:00:37;101267.66;;;6.53;100.00
45357;BME280;31092;51.924;21.448;2022-10-28T06:03:04;101257.81;;;6.53;100.00
45357;BME280;31092;51.924;21.448;2022-10-28T06:05:36;101145.69;;;5.89;100.00
45357;BME280;31092;51.924;21.448;2022-10-28T06:08:03;101247.53;;;6.47;100.00
45357;BME280;31092;51.924;21.448;2022-10-28T06:10:29;101164.50;;;6.00;100.00
45357;BME280;31092;51.924;21.448;2022-10-28T06:12:55;101180.59;;;6.12;100.00
45357;BME280;31092;51.924;21.448;2022-10-28T06:15:21;101190.50;;;6.22;100.00
45357;BME280;31092;51.924;21.448;2022-10-28T06:17:49;101262.88;;;6.69;100.00
45357;BME280;31092;51.924;21.448;2022-10-28T06:20:16;101267.88;;;6.74;100.00
45357;BME280;31092;51.924;21.448;2022-10-28T06:22:49;101266.16;;;6.72;100.00
45357;BME280;31092;51.924;21.448;2022-10-28T06:25:14;101263.63;;;6.82;100.00
45357;BME280;31092;51.924;21.448;2022-10-28T06:27:40;101226.34;;;6.68;100.00
45357;BME280;31092;51.924;21.448;2022-10-28T06:30:06;101188.97;;;6.55;100.00
45357;BME280;31092;51.924;21.448;2022-10-28T06:32:32;101235.41;;;6.89;100.00
45357;BME280;31092;51.924;21.448;2022-10-28T06:34:58;101167.66;;;6.65;100.00
45357;BME280;31092;51.924;21.448;2022-10-28T06:37:23;101185.25;;;6.80;100.00
45357;BME280;31092;51.924;21.448;2022-10-28T06:39:49;101260.69;;;7.32;100.00
45357;BME280;31092;51.924;21.448;2022-10-28T06:42:17;101240.00;;;7.34;100.00
45357;BME280;31092;51.924;21.448;2022-10-28T06:44:42;101249.66;;;7.48;100.00
45357;BME280;31092;51.924;21.448;2022-10-28T06:47:08;101241.00;;;7.55;100.00
45357;BME280;31092;51.924;21.448;2022-10-28T06:49:34;101211.59;;;7.54;100.00
45357;BME280;31092;51.924;21.448;2022-10-28T06:51:59;101242.44;;;7.82;100.00
45357;BME280;31092;51.924;21.448;2022-10-28T06:54:24;101186.25;;;7.69;100.00
45357;BME280;31092;51.924;21.448;2022-10-28T06:56:50;101230.19;;;8.11;100.00
45357;BME280;31092;51.924;21.448;2022-10-28T06:59:15;101240.50;;;8.38;100.00
45357;BME280;31092;51.924;21.448;2022-10-28T07:01:41;101243.63;;;8.55;100.00
45357;BME280;31092;51.924;21.448;2022-10-28T07:04:10;101232.09;;;8.64;100.00
45357;BME280;31092;51.924;21.448;2022-10-28T07:06:35;101228.81;;;8.72;100.00
45357;BME280;31092;51.924;21.448;2022-10-28T07:09:01;101123.91;;;8.20;100.00
45357;BME280;31092;51.924;21.448;2022-10-28T07:11:26;101227.50;;;8.87;100.00
45357;BME280;31092;51.924;21.448;2022-10-28T07:13:52;101232.97;;;9.06;100.00
45357;BME280;31092;51.924;21.448;2022-10-28T07:16:17;101175.19;;;8.91;100.00
45357;BME280;31092;51.924;21.448;2022-10-28T07:18:43;101217.88;;;9.36;100.00
45357;BME280;31092;51.924;21.448;2022-10-28T07:21:08;101229.63;;;9.66;100.00
45357;BME280;31092;51.924;21.448;2022-10-28T07:23:34;101231.41;;;9.86;100.00
45357;BME280;31092;51.924;21.448;2022-10-28T07:25:59;101241.66;;;10.12;100.00
45357;BME280;31092;51.924;21.448;2022-10-28T07:28:25;101213.19;;;10.19;100.00
45357;BME280;31092;51.924;21.448;2022-10-28T07:30:51;101227.56;;;10.48;100.00
45357;BME280;31092;51.924;21.448;2022-10-28T07:33:17;101240.44;;;10.74;100.00
45357;BME280;31092;51.924;21.448;2022-10-28T07:35:46;101235.19;;;10.92;100.00
45357;BME280;31092;51.924;21.448;2022-10-28T07:38:11;101163.75;;;10.68;100.00
45357;BME280;31092;51.924;21.448;2022-10-28T07:40:37;101165.16;;;10.82;100.00
45357;BME280;31092;51.924;21.448;2022-10-28T07:43:02;101239.09;;;11.36;100.00
45357;BME280;31092;51.924;21.448;2022-10-28T07:45:28;101168.31;;;11.15;100.00
45357;BME280;31092;51.924;21.448;2022-10-28T07:47:54;101229.28;;;11.72;100.00
45357;BME280;31092;51.924;21.448;2022-10-28T07:50:19;101230.69;;;11.86;100.00
45357;BME280;31092;51.924;21.448;2022-10-28T07:52:45;101160.50;;;11.49;100.00
45357;BME280;31092;51.924;21.448;2022-10-28T07:55:11;101200.69;;;11.89;100.00
45357;BME280;31092;51.924;21.448;2022-10-28T07:57:37;101238.25;;;12.28;100.00
45357;BME280;31092;51.924;21.448;2022-10-28T08:00:04;101160.81;;;12.01;100.00
45357;BME280;31092;51.924;21.448;2022-10-28T08:02:30;101192.16;;;12.30;100.00
45357;BME280;31092;51.924;21.448;2022-10-28T08:04:55;101169.16;;;12.26;100.00
45357;BME280;31092;51.924;21.448;2022-10-28T08:07:21;101161.84;;;12.36;100.00
45357;BME280;31092;51.924;21.448;2022-10-28T08:09:47;101225.94;;;12.87;100.00
45357;BME280;31092;51.924;21.448;2022-10-28T08:12:14;101230.34;;;13.06;100.00
45357;BME280;31092;51.924;21.448;2022-10-28T08:14:40;101149.34;;;12.79;100.00
45357;BME280;31092;51.924;21.448;2022-10-28T08:17:05;101201.25;;;13.26;100.00
45357;BME280;31092;51.924;21.448;2022-10-28T08:19:31;101198.78;;;13.41;100.00
45357;BME280;31092;51.924;21.448;2022-10-28T08:21:57;101160.53;;;13.36;100.00
45357;BME280;31092;51.924;21.448;2022-10-28T08:24:23;101123.25;;;13.56;100.00
45357;BME280;31092;51.924;21.448;2022-10-28T08:26:48;101123.88;;;13.92;100.00
45357;BME280;31092;51.924;21.448;2022-10-28T08:29:15;101185.25;;;14.34;100.00
45357;BME280;31092;51.924;21.448;2022-10-28T08:31:40;101178.28;;;14.40;100.00
45357;BME280;31092;51.924;21.448;2022-10-28T08:34:06;101190.28;;;14.29;100.00
45357;BME280;31092;51.924;21.448;2022-10-28T08:36:32;101161.28;;;14.05;100.00
45357;BME280;31092;51.924;21.448;2022-10-28T08:38:58;101115.59;;;14.02;100.00
45357;BME280;31092;51.924;21.448;2022-10-28T08:41:43;101179.00;;;14.58;100.00
45357;BME280;31092;51.924;21.448;2022-10-28T08:47:33;101204.06;;;15.01;100.00
45357;BME280;31092;51.924;21.448;2022-10-28T08:50:30;101192.13;;;15.43;100.00
45357;BME280;31092;51.924;21.448;2022-10-28T08:53:12;101179.81;;;15.16;100.00
45357;BME280;31092;51.924;21.448;2022-10-28T08:55:42;101125.47;;;14.60;100.00
45357;BME280;31092;51.924;21.448;2022-10-28T09:00:35;101171.38;;;14.86;100.00
45357;BME280;31092;51.924;21.448;2022-10-28T09:03:23;101189.97;;;15.22;100.00
45357;BME280;31092;51.924;21.448;2022-10-28T09:06:00;101169.88;;;15.47;100.00
45357;BME280;31092;51.924;21.448;2022-10-28T09:08:28;101086.09;;;15.44;100.00
45357;BME280;31092;51.924;21.448;2022-10-28T09:14:22;101172.31;;;16.82;100.00
45357;BME280;31092;51.924;21.448;2022-10-28T09:17:15;101051.34;;;16.55;100.00
45357;BME280;31092;51.924;21.448;2022-10-28T09:24:54;101162.22;;;16.90;100.00
45357;BME280;31092;51.924;21.448;2022-10-28T09:35:43;101147.78;;;16.21;100.00
45357;BME280;31092;51.924;21.448;2022-10-28T09:38:29;101150.38;;;16.14;100.00
45357;BME280;31092;51.924;21.448;2022-10-28T09:41:11;101138.78;;;16.20;100.00
45357;BME280;31092;51.924;21.448;2022-10-28T09:43:45;101130.38;;;16.53;100.00
45357;BME280;31092;51.924;21.448;2022-10-28T09:46:15;101158.38;;;16.99;100.00
45357;BME280;31092;51.924;21.448;2022-10-28T09:48:51;101077.16;;;16.73;100.00
45357;BME280;31092;51.924;21.448;2022-10-28T09:53:58;101141.69;;;17.32;100.00
45357;BME280;31092;51.924;21.448;2022-10-28T09:56:25;101137.84;;;17.41;100.00
45357;BME280;31092;51.924;21.448;2022-10-28T09:58:52;101140.72;;;17.69;100.00
45357;BME280;31092;51.924;21.448;2022-10-28T10:01:20;101132.38;;;17.56;100.00
45357;BME280;31092;51.924;21.448;2022-10-28T10:03:49;101130.06;;;17.75;100.00
45357;BME280;31092;51.924;21.448;2022-10-28T10:06:22;101106.53;;;17.52;100.00
45357;BME280;31092;51.924;21.448;2022-10-28T10:08:49;101076.09;;;17.63;100.00
45357;BME280;31092;51.924;21.448;2022-10-28T10:11:29;101129.91;;;18.34;100.00
45357;BME280;31092;51.924;21.448;2022-10-28T10:13:57;101107.91;;;18.14;100.00
45357;BME280;31092;51.924;21.448;2022-10-28T10:16:40;101125.50;;;17.90;100.00
45357;BME280;31092;51.924;21.448;2022-10-28T10:19:08;101114.59;;;17.60;100.00
45357;BME280;31092;51.924;21.448;2022-10-28T10:21:55;101108.84;;;17.85;100.00
45357;BME280;31092;51.924;21.448;2022-10-28T10:24:31;101114.16;;;18.29;100.00
45357;BME280;31092;51.924;21.448;2022-10-28T10:27:00;101096.53;;;18.32;100.00
45357;BME280;31092;51.924;21.448;2022-10-28T10:29:26;101039.75;;;17.92;100.00
45357;BME280;31092;51.924;21.448;2022-10-28T10:34:36;101059.53;;;18.23;100.00
45357;BME280;31092;51.924;21.448;2022-10-28T10:37:02;101026.75;;;18.16;100.00
45357;BME280;31092;51.924;21.448;2022-10-28T10:39:37;101068.13;;;18.19;100.00
45357;BME280;31092;51.924;21.448;2022-10-28T10:42:14;100976.81;;;17.30;100.00
45357;BME280;31092;51.924;21.448;2022-10-28T10:44:40;101026.44;;;17.46;100.00
45357;BME280;31092;51.924;21.448;2022-10-28T10:49:33;101091.66;;;17.69;100.00
45357;BME280;31092;51.924;21.448;2022-10-28T10:52:02;101064.59;;;17.68;100.00
45357;BME280;31092;51.924;21.448;2022-10-28T10:54:30;101053.25;;;17.64;100.00
45357;BME280;31092;51.924;21.448;2022-10-28T10:57:15;101067.41;;;17.75;100.00
45357;BME280;31092;51.924;21.448;2022-10-28T10:59:44;101092.25;;;17.80;100.00
45357;BME280;31092;51.924;21.448;2022-10-28T11:02:33;101083.16;;;17.58;100.00
45357;BME280;31092;51.924;21.448;2022-10-28T11:05:02;101074.34;;;17.41;100.00
45357;BME280;31092;51.924;21.448;2022-10-28T11:07:30;101017.78;;;17.07;100.00
45357;BME280;31092;51.924;21.448;2022-10-28T11:09:56;101072.75;;;17.32;100.00
45357;BME280;31092;51.924;21.448;2022-10-28T11:12:31;101088.00;;;17.26;100.00
45357;BME280;31092;51.924;21.448;2022-10-28T11:17:39;101068.94;;;17.26;100.00
45357;BME280;31092;51.924;21.448;2022-10-28T11:26:07;100995.56;;;16.88;100.00
45357;BME280;31092;51.924;21.448;2022-10-28T11:31:47;101051.63;;;17.34;100.00
45357;BME280;31092;51.924;21.448;2022-10-28T11:40:00;101017.66;;;17.30;100.00
45357;BME280;31092;51.924;21.448;2022-10-28T11:47:50;101028.31;;;17.46;100.00
45357;BME280;31092;51.924;21.448;2022-10-28T11:53:46;100947.84;;;17.07;100.00
45357;BME280;31092;51.924;21.448;2022-10-28T11:56:33;100950.19;;;17.10;100.00
45357;BME280;31092;51.924;21.448;2022-10-28T12:02:00;101028.16;;;17.69;100.00
45357;BME280;31092;51.924;21.448;2022-10-28T12:04:45;101011.81;;;17.69;100.00
45357;BME280;31092;51.924;21.448;2022-10-28T12:13:18;101014.78;;;17.74;100.00
45357;BME280;31092;51.924;21.448;2022-10-28T12:18:31;100943.63;;;17.41;100.00
45357;BME280;31092;51.924;21.448;2022-10-28T12:23:34;100949.63;;;17.51;100.00
45357;BME280;31092;51.924;21.448;2022-10-28T12:26:05;101005.56;;;17.90;100.00
45357;BME280;31092;51.924;21.448;2022-10-28T12:28:37;101005.75;;;17.88;100.00
45357;BME280;31092;51.924;21.448;2022-10-28T12:33:50;100995.28;;;17.92;100.00
45357;BME280;31092;51.924;21.448;2022-10-28T12:36:32;100936.97;;;17.65;100.00
45357;BME280;31092;51.924;21.448;2022-10-28T12:44:22;100935.41;;;17.77;100.00
45357;BME280;31092;51.924;21.448;2022-10-28T12:49:52;100997.81;;;18.15;100.00
45357;BME280;31092;51.924;21.448;2022-10-28T12:57:54;100926.09;;;17.71;100.00
45357;BME280;31092;51.924;21.448;2022-10-28T13:00:27;100987.44;;;18.04;100.00
45357;BME280;31092;51.924;21.448;2022-10-28T13:03:11;100972.47;;;17.93;100.00
45357;BME280;31092;51.924;21.448;2022-10-28T13:05:43;100890.69;;;17.43;100.00
45357;BME280;31092;51.924;21.448;2022-10-28T13:19:16;100984.91;;;18.02;100.00
45357;BME280;31092;51.924;21.448;2022-10-28T13:22:10;100982.56;;;17.99;100.00
45357;BME280;31092;51.924;21.448;2022-10-28T13:24:52;100993.28;;;18.01;100.00
45357;BME280;31092;51.924;21.448;2022-10-28T13:27:22;100996.19;;;17.99;100.00
45357;BME280;31092;51.924;21.448;2022-10-28T13:29:54;100919.25;;;17.54;100.00
45357;BME280;31092;51.924;21.448;2022-10-28T13:32:42;100991.72;;;17.91;100.00
45357;BME280;31092;51.924;21.448;2022-10-28T13:35:14;100924.88;;;17.53;100.00
45357;BME280;31092;51.924;21.448;2022-10-28T13:37:46;100910.38;;;17.45;100.00
45357;BME280;31092;51.924;21.448;2022-10-28T13:41:06;100917.94;;;17.50;100.00
45357;BME280;31092;51.924;21.448;2022-10-28T13:43:16;100899.53;;;17.31;100.00
45357;BME280;31092;51.924;21.448;2022-10-28T13:45:43;100981.94;;;17.76;100.00
45357;BME280;31092;51.924;21.448;2022-10-28T13:58:55;100921.75;;;17.13;100.00
45357;BME280;31092;51.924;21.448;2022-10-28T14:04:03;100919.25;;;16.96;100.00
45357;BME280;31092;51.924;21.448;2022-10-28T14:06:30;100912.72;;;16.91;100.00
45357;BME280;31092;51.924;21.448;2022-10-28T14:08:57;100896.41;;;16.76;100.00
45357;BME280;31092;51.924;21.448;2022-10-28T14:11:24;100976.28;;;17.19;100.00
45357;BME280;31092;51.924;21.448;2022-10-28T14:13:55;100935.91;;;16.87;100.00
45357;BME280;31092;51.924;21.448;2022-10-28T14:16:28;100989.56;;;17.08;100.00
45357;BME280;31092;51.924;21.448;2022-10-28T14:24:42;100992.38;;;16.85;100.00
45357;BME280;31092;51.924;21.448;2022-10-28T14:30:10;100988.50;;;16.64;100.00
45357;BME280;31092;51.924;21.448;2022-10-28T14:32:54;100998.63;;;16.56;100.00
45357;BME280;31092;51.924;21.448;2022-10-28T14:35:39;101003.69;;;16.44;100.00
45357;BME280;31092;51.924;21.448;2022-10-28T14:47:24;101059.28;;;16.18;100.00
45357;BME280;31092;51.924;21.448;2022-10-28T14:50:00;101058.53;;;16.10;100.00
45357;BME280;31092;51.924;21.448;2022-10-28T14:52:29;101069.34;;;15.95;100.00
45357;BME280;31092;51.924;21.448;2022-10-28T14:54:58;101066.38;;;15.82;100.00
45357;BME280;31092;51.924;21.448;2022-10-28T14:57:31;100982.50;;;15.24;100.00
45357;BME280;31092;51.924;21.448;2022-10-28T14:59:59;101047.66;;;15.55;100.00
45357;BME280;31092;51.924;21.448;2022-10-28T15:02:29;101041.97;;;15.42;100.00
45357;BME280;31092;51.924;21.448;2022-10-28T15:05:17;101045.38;;;15.36;100.00
45357;BME280;31092;51.924;21.448;2022-10-28T15:07:42;101035.47;;;15.20;100.00
45357;BME280;31092;51.924;21.448;2022-10-28T15:10:27;101008.94;;;14.99;100.00
45357;BME280;31092;51.924;21.448;2022-10-28T15:12:55;100946.03;;;14.56;100.00
45357;BME280;31092;51.924;21.448;2022-10-28T15:15:23;101030.13;;;14.96;100.00
45357;BME280;31092;51.924;21.448;2022-10-28T15:17:49;101018.97;;;14.82;100.00
45357;BME280;31092;51.924;21.448;2022-10-28T15:20:28;101022.72;;;14.81;100.00
45357;BME280;31092;51.924;21.448;2022-10-28T15:23:17;100970.78;;;14.45;100.00
45357;BME280;31092;51.924;21.448;2022-10-28T15:25:43;101019.72;;;14.60;100.00
45357;BME280;31092;51.924;21.448;2022-10-28T15:28:10;101019.22;;;14.56;100.00
45357;BME280;31092;51.924;21.448;2022-10-28T15:30:40;100949.66;;;14.08;100.00
45357;BME280;31092;51.924;21.448;2022-10-28T15:33:18;100952.88;;;14.03;100.00
45357;BME280;31092;51.924;21.448;2022-10-28T15:35:45;100993.34;;;14.21;100.00